Time;durP1;ratioP1;P1;durP2;ratioP2;P2;SDS_P1;SDS_P2;PMS_P1;PMS_P2;Temp;Humidity;BMP_temperature;BMP_pressure;BME280_temperature;BME280_humidity;BME280_pressure;Samples;Min_cycle;Max_cycle;Signal;HPM_P1;HPM_P2
2021/09/22 00:02:18;;;;;;;6.95;6.28;;;;;;;7.01;100.00;97031.81;5033269;28;25055;-76
2021/09/22 00:04:45;;;;;;;6.43;5.77;;;;;;;7.07;100.00;97034.19;5033050;28;24438;-75
2021/09/22 00:07:12;;;;;;;7.50;6.57;;;;;;;7.12;100.00;97034.03;5033700;28;24533;-75
2021/09/22 00:09:39;;;;;;;9.43;6.72;;;;;;;7.14;100.00;97027.13;5033439;28;24427;-75
2021/09/22 00:12:06;;;;;;;7.13;6.25;;;;;;;7.22;100.00;97025.16;5033490;28;24416;-75
2021/09/22 00:14:32;;;;;;;6.97;6.28;;;;;;;7.16;100.00;97026.22;5033229;28;24538;-75
2021/09/22 00:16:59;;;;;;;6.63;5.72;;;;;;;7.12;100.00;97019.47;5033517;28;24420;-75
2021/09/22 00:19:25;;;;;;;7.15;5.97;;;;;;;7.20;100.00;97014.91;5032947;28;24419;-75
2021/09/22 00:21:52;;;;;;;6.90;6.20;;;;;;;7.23;100.00;97019.13;5033347;28;25007;-75
2021/09/22 00:24:19;;;;;;;5.85;5.32;;;;;;;7.14;100.00;97009.09;5033080;28;24423;-75
2021/09/22 00:26:46;;;;;;;8.57;5.82;;;;;;;7.19;100.00;97012.38;5032979;28;25003;-75
2021/09/22 00:29:12;;;;;;;6.55;5.90;;;;;;;7.23;100.00;97008.81;5033026;28;24983;-75
2021/09/22 00:31:39;;;;;;;6.43;5.13;;;;;;;7.26;100.00;97009.56;5032998;28;24416;-76
2021/09/22 00:34:06;;;;;;;5.78;5.20;;;;;;;7.26;99.96;97016.44;5032213;28;25003;-76
2021/09/22 00:36:33;;;;;;;5.50;5.00;;;;;;;7.18;99.49;97008.94;5032786;28;24478;-76
2021/09/22 00:38:59;;;;;;;6.85;5.40;;;;;;;7.15;97.80;97009.03;5033260;28;24534;-76
2021/09/22 00:41:27;;;;;;;6.45;5.18;;;;;;;7.10;99.96;97012.66;5032961;28;24824;-76
2021/09/22 00:43:54;;;;;;;5.15;4.40;;;;;;;7.07;99.81;97013.56;5033105;28;24501;-76
2021/09/22 00:46:20;;;;;;;5.45;4.93;;;;;;;7.11;99.76;97014.34;5032401;28;24829;-76
2021/09/22 00:48:47;;;;;;;6.45;5.00;;;;;;;7.06;99.40;97014.47;5032813;28;24481;-76
2021/09/22 00:51:13;;;;;;;5.13;4.43;;;;;;;6.96;100.00;97018.19;5032878;28;24432;-76
2021/09/22 00:53:40;;;;;;;5.10;4.60;;;;;;;6.91;100.00;97010.59;5032714;28;24427;-76
2021/09/22 00:56:07;;;;;;;5.40;4.43;;;;;;;6.92;100.00;97011.44;5032276;28;24949;-76
2021/09/22 00:58:35;;;;;;;4.88;4.30;;;;;;;6.99;100.00;97013.78;5030904;28;24444;-76
2021/09/22 01:01:03;;;;;;;3.50;3.20;;;;;;;7.06;100.00;97013.63;5032150;28;25023;-76
2021/09/22 01:03:30;;;;;;;4.05;3.17;;;;;;;6.99;100.00;97013.78;5029667;28;24447;-76
2021/09/22 01:06:00;;;;;;;3.47;3.17;;;;;;;6.97;100.00;97009.56;5032344;28;24478;-76
2021/09/22 01:08:27;;;;;;;3.40;3.10;;;;;;;6.96;100.00;97016.47;5032256;28;24432;-76
2021/09/22 01:10:53;;;;;;;3.70;2.97;;;;;;;7.00;100.00;97020.63;5032184;28;24439;-76
2021/09/22 01:13:20;;;;;;;4.07;3.13;;;;;;;7.01;100.00;97024.91;5032140;28;24420;-76
2021/09/22 01:15:48;;;;;;;3.23;2.83;;;;;;;7.06;100.00;97022.19;5032091;28;24482;-76
2021/09/22 01:18:18;;;;;;;3.08;2.78;;;;;;;7.12;100.00;97021.16;5032086;28;24833;-76
2021/09/22 01:20:47;;;;;;;2.80;2.60;;;;;;;7.11;100.00;97022.06;5032324;28;24646;-76
2021/09/22 01:23:15;;;;;;;2.50;2.30;;;;;;;7.09;100.00;97027.28;5031962;28;24530;-76
2021/09/22 01:25:44;;;;;;;2.65;2.42;;;;;;;7.08;100.00;97024.72;5031686;28;24473;-76
2021/09/22 01:28:12;;;;;;;2.95;2.65;;;;;;;7.06;100.00;97023.94;5031749;28;24423;-76
2021/09/22 01:30:39;;;;;;;3.05;2.75;;;;;;;7.06;100.00;97022.19;5032167;28;24493;-76
2021/09/22 01:33:08;;;;;;;4.55;3.85;;;;;;;7.11;100.00;97030.63;5031987;28;24466;-76
2021/09/22 01:35:37;;;;;;;4.50;4.10;;;;;;;7.32;95.97;97031.75;5031515;28;24487;-76
2021/09/22 01:38:08;;;;;;;5.25;4.45;;;;;;;7.14;94.52;97038.28;5031690;28;24423;-76
2021/09/22 01:40:36;;;;;;;5.03;4.20;;;;;;;6.85;96.29;97028.78;5031554;28;24423;-76
2021/09/22 01:43:04;;;;;;;5.28;4.25;;;;;;;6.67;98.74;97024.16;5031632;28;24451;-76
2021/09/22 01:45:31;;;;;;;5.05;4.57;;;;;;;6.65;99.90;97029.34;5030298;28;24478;-76
2021/09/22 01:47:58;;;;;;;6.38;4.63;;;;;;;6.67;99.95;97026.72;5031715;28;24423;-76
2021/09/22 01:50:25;;;;;;;4.70;4.30;;;;;;;6.73;99.64;97026.56;5031447;28;24436;-76
2021/09/22 01:52:52;;;;;;;4.75;4.30;;;;;;;6.72;99.00;97024.88;5031367;28;24969;-76
2021/09/22 01:55:20;;;;;;;4.13;3.72;;;;;;;6.79;97.63;97024.69;5030996;28;24431;-76
2021/09/22 01:57:49;;;;;;;4.47;3.83;;;;;;;6.64;100.00;97025.09;5031422;28;24416;-76
2021/09/22 02:00:16;;;;;;;4.28;3.88;;;;;;;6.65;100.00;97018.22;5031459;28;24786;-76
2021/09/22 02:02:42;;;;;;;4.47;4.00;;;;;;;6.62;100.00;97029.44;5031248;28;24453;-76
2021/09/22 02:05:09;;;;;;;3.75;3.42;;;;;;;6.74;100.00;97028.25;5030921;28;24462;-76
2021/09/22 02:07:36;;;;;;;3.78;3.47;;;;;;;6.75;100.00;97028.22;5031036;28;24428;-76
2021/09/22 02:10:04;;;;;;;4.20;3.80;;;;;;;6.77;100.00;97026.44;5031477;28;24432;-76
2021/09/22 02:12:31;;;;;;;4.60;3.80;;;;;;;6.84;97.97;97026.28;5031164;28;25002;-75
2021/09/22 02:14:58;;;;;;;4.10;3.73;;;;;;;6.60;99.30;97026.06;5030860;28;24793;-75
2021/09/22 02:17:25;;;;;;;4.55;4.13;;;;;;;6.53;100.00;97016.81;5031394;28;24443;-75
2021/09/22 02:19:52;;;;;;;5.32;4.10;;;;;;;6.53;100.00;97011.69;5030855;28;24428;-75
2021/09/22 02:22:19;;;;;;;4.23;3.83;;;;;;;6.57;100.00;97012.44;5030774;28;24422;-75
2021/09/22 02:24:45;;;;;;;4.23;3.83;;;;;;;6.62;100.00;97013.16;5030589;28;24443;-75
2021/09/22 02:27:14;;;;;;;10.35;4.10;;;;;;;6.67;100.00;97012.13;5030978;28;24423;-76
2021/09/22 02:29:42;;;;;;;4.38;3.97;;;;;;;6.71;100.00;97006.03;5030859;28;24458;-76
2021/09/22 02:32:10;;;;;;;5.50;4.28;;;;;;;6.73;100.00;97011.13;5030828;28;24412;-76
2021/09/22 02:34:37;;;;;;;5.10;4.38;;;;;;;6.77;100.00;97007.56;5030345;28;25002;-76
2021/09/22 02:37:04;;;;;;;6.68;4.97;;;;;;;6.82;100.00;97002.28;5031068;28;24426;-76
2021/09/22 02:39:31;;;;;;;6.38;5.55;;;;;;;6.84;100.00;97014.25;5030865;28;24813;-76
2021/09/22 02:41:58;;;;;;;6.53;5.33;;;;;;;6.85;100.00;97010.78;5030811;28;24531;-76
2021/09/22 02:44:25;;;;;;;6.28;5.57;;;;;;;6.89;100.00;97012.38;5030544;28;24443;-76
2021/09/22 02:46:51;;;;;;;5.82;5.22;;;;;;;6.91;100.00;97008.03;5030720;28;24424;-76
2021/09/22 02:49:20;;;;;;;6.13;5.13;;;;;;;6.91;100.00;97000.31;5030455;28;24481;-76
2021/09/22 02:51:46;;;;;;;6.22;5.15;;;;;;;6.83;100.00;96994.53;5030719;28;24419;-76
2021/09/22 02:54:13;;;;;;;5.57;4.85;;;;;;;6.82;100.00;96995.41;5030640;28;24419;-76
2021/09/22 02:56:39;;;;;;;5.65;5.15;;;;;;;6.96;100.00;96993.28;5029931;28;25039;-76
2021/09/22 02:59:06;;;;;;;7.22;5.10;;;;;;;6.99;98.78;97002.66;5040149;22;24915;-78
2021/09/22 03:01:32;;;;;;;5.72;4.97;;;;;;;6.86;99.36;96994.44;5014071;28;24408;-78
2021/09/22 03:03:59;;;;;;;5.90;5.05;;;;;;;6.58;100.00;96988.38;5014874;28;24499;-78
2021/09/22 03:06:27;;;;;;;7.28;4.93;;;;;;;6.41;100.00;96987.09;5014587;28;24478;-77
2021/09/22 03:08:53;;;;;;;9.20;5.85;;;;;;;6.41;100.00;96987.09;5012909;28;24435;-77
2021/09/22 03:11:20;;;;;;;6.45;5.57;;;;;;;6.36;100.00;96988.94;5010982;28;24471;-77
2021/09/22 03:13:46;;;;;;;6.57;5.65;;;;;;;6.30;100.00;96983.97;5010714;28;24416;-77
2021/09/22 03:16:13;;;;;;;8.70;5.93;;;;;;;6.27;100.00;96984.91;5010532;28;24428;-77
2021/09/22 03:18:40;;;;;;;6.80;5.70;;;;;;;6.19;100.00;96980.81;5010446;28;24417;-77
2021/09/22 03:21:07;;;;;;;5.85;5.35;;;;;;;6.21;100.00;96984.22;5010744;28;24416;-77
2021/09/22 03:23:34;;;;;;;5.72;5.15;;;;;;;6.20;100.00;96985.94;5010792;28;24484;-78
2021/09/22 03:26:01;;;;;;;5.65;5.05;;;;;;;6.23;100.00;96985.88;5014564;28;24418;-78
2021/09/22 03:28:28;;;;;;;7.55;5.75;;;;;;;6.17;100.00;96987.75;5014735;28;24428;-78
2021/09/22 03:30:54;;;;;;;5.18;4.50;;;;;;;6.12;99.79;96987.88;5014326;28;24425;-77
2021/09/22 03:33:20;;;;;;;4.72;4.35;;;;;;;6.05;100.00;96986.34;5011624;28;25015;-77
2021/09/22 03:35:47;;;;;;;4.57;4.18;;;;;;;5.97;100.00;96983.97;5010204;28;24471;-77
2021/09/22 03:38:13;;;;;;;4.72;4.32;;;;;;;5.87;100.00;96990.19;5010424;28;24424;-77
2021/09/22 03:40:41;;;;;;;4.55;3.92;;;;;;;5.83;100.00;96988.56;5010458;28;24423;-77
2021/09/22 03:43:08;;;;;;;4.95;4.28;;;;;;;5.86;100.00;96992.78;5010368;28;24440;-77
2021/09/22 03:45:34;;;;;;;4.68;4.18;;;;;;;5.95;100.00;96997.75;5009801;28;24416;-77
2021/09/22 03:48:01;;;;;;;4.60;4.20;;;;;;;5.99;100.00;96995.03;5010584;28;24427;-76
2021/09/22 03:50:27;;;;;;;4.85;4.45;;;;;;;6.02;100.00;97002.69;5010925;28;24432;-77
2021/09/22 03:52:54;;;;;;;4.18;3.78;;;;;;;6.03;99.88;97009.50;5014563;28;24439;-78
2021/09/22 03:55:20;;;;;;;4.13;3.80;;;;;;;5.94;100.00;97004.63;5013748;28;24439;-78
2021/09/22 03:57:48;;;;;;;4.60;4.05;;;;;;;5.94;100.00;97003.78;5014022;28;24421;-78
2021/09/22 04:00:15;;;;;;;4.03;3.63;;;;;;;6.01;100.00;97001.00;5014153;28;24429;-78
2021/09/22 04:02:42;;;;;;;3.47;3.17;;;;;;;6.13;99.48;97006.72;5014257;28;25031;-78
2021/09/22 04:05:09;;;;;;;3.28;2.95;;;;;;;6.14;99.28;97008.41;5013774;28;24981;-78
2021/09/22 04:07:35;;;;;;;3.17;2.88;;;;;;;6.01;99.64;97013.88;5014635;28;24428;-78
2021/09/22 04:10:02;;;;;;;3.17;2.88;;;;;;;5.94;100.00;97014.91;5016890;28;24447;-78
2021/09/22 04:12:28;;;;;;;3.50;3.20;;;;;;;5.89;100.00;97021.81;5016098;28;24992;-78
2021/09/22 04:14:56;;;;;;;3.73;3.40;;;;;;;5.88;100.00;97020.16;5015990;28;24412;-79
2021/09/22 04:17:23;;;;;;;4.10;3.00;;;;;;;5.92;99.60;97026.06;5016619;28;24444;-78
2021/09/22 04:19:49;;;;;;;3.20;2.90;;;;;;;5.88;99.99;97021.88;5016533;28;24428;-78
2021/09/22 04:22:16;;;;;;;3.90;3.60;;;;;;;5.82;99.98;97023.72;5016194;28;24440;-77
2021/09/22 04:24:43;;;;;;;4.45;3.08;;;;;;;5.77;100.00;97029.84;5014064;28;24857;-77
2021/09/22 04:27:09;;;;;;;2.87;2.67;;;;;;;5.75;100.00;97029.88;5013191;28;24428;-77
2021/09/22 04:29:35;;;;;;;3.30;3.00;;;;;;;5.78;100.00;97034.09;5014912;28;24424;-77
2021/09/22 04:32:04;;;;;;;3.97;2.90;;;;;;;5.81;100.00;97029.72;5013795;28;24446;-76
2021/09/22 04:34:30;;;;;;;3.85;3.45;;;;;;;5.91;100.00;97027.78;5013120;28;24960;-77
2021/09/22 04:36:57;;;;;;;4.20;3.27;;;;;;;5.94;100.00;97019.19;5013096;28;24513;-77
2021/09/22 04:39:23;;;;;;;3.93;3.27;;;;;;;6.02;100.00;97018.13;5014537;28;24477;-78
2021/09/22 04:41:50;;;;;;;3.40;3.10;;;;;;;6.06;100.00;97022.31;5018232;28;24428;-78
2021/09/22 04:44:16;;;;;;;4.07;3.10;;;;;;;6.09;100.00;97017.97;5017132;28;24443;-77
2021/09/22 04:46:43;;;;;;;3.45;3.15;;;;;;;6.18;100.00;97017.72;5017677;28;24471;-77
2021/09/22 04:49:11;;;;;;;3.42;3.13;;;;;;;6.19;100.00;97022.84;5017717;28;24463;-77
2021/09/22 04:51:37;;;;;;;3.83;3.53;;;;;;;6.19;100.00;97014.25;5017010;28;24420;-77
2021/09/22 04:54:04;;;;;;;3.08;2.85;;;;;;;6.17;100.00;97013.47;5017082;28;24483;-77
2021/09/22 04:56:30;;;;;;;3.42;3.13;;;;;;;6.15;100.00;97016.06;5012997;28;24498;-77
2021/09/22 04:58:57;;;;;;;7.25;3.00;;;;;;;6.15;100.00;97010.09;5012721;28;24440;-76
2021/09/22 05:01:23;;;;;;;9.25;3.20;;;;;;;6.17;100.00;97016.03;5013532;28;24825;-78
2021/09/22 05:03:50;;;;;;;5.05;3.00;;;;;;;6.29;100.00;97010.56;5015242;28;24452;-78
2021/09/22 05:06:17;;;;;;;6.25;2.85;;;;;;;6.24;100.00;97009.88;5015744;28;24431;-77
2021/09/22 05:08:44;;;;;;;5.60;3.13;;;;;;;6.25;100.00;97011.53;5015944;28;24436;-79
2021/09/22 05:11:10;;;;;;;4.32;3.88;;;;;;;6.23;100.00;97018.44;5017437;28;24439;-79
2021/09/22 05:13:37;;;;;;;4.57;4.00;;;;;;;6.05;100.00;97014.63;5026219;28;24431;-77
2021/09/22 05:16:03;;;;;;;4.20;3.72;;;;;;;5.92;100.00;97018.34;5015632;28;24428;-80
2021/09/22 05:18:30;;;;;;;4.70;3.65;;;;;;;5.79;100.00;97023.78;5007714;28;24439;-78
2021/09/22 05:20:56;;;;;;;4.20;3.80;;;;;;;5.63;100.00;97026.75;5014050;28;24966;-80
2021/09/22 05:23:24;;;;;;;3.63;3.33;;;;;;;5.59;100.00;97020.81;5014753;28;24813;-77
2021/09/22 05:25:51;;;;;;;3.75;3.30;;;;;;;5.52;100.00;97027.81;5013159;28;24456;-79
2021/09/22 05:28:17;;;;;;;3.40;3.10;;;;;;;5.49;100.00;97027.91;5023403;28;24443;-77
2021/09/22 05:30:44;;;;;;;3.40;3.10;;;;;;;5.49;100.00;97020.22;5031565;28;24969;-80
2021/09/22 05:33:11;;;;;;;2.83;2.55;;;;;;;5.58;100.00;97025.13;5024613;28;24463;-80
2021/09/22 05:35:38;;;;;;;3.22;2.92;;;;;;;5.62;100.00;97031.03;5034770;28;24422;-78
2021/09/22 05:38:04;;;;;;;2.80;2.60;;;;;;;5.69;100.00;97031.75;5032406;28;24424;-78
2021/09/22 05:40:32;;;;;;;3.13;2.72;;;;;;;5.78;100.00;97029.81;5032611;28;24519;-78
2021/09/22 05:42:59;;;;;;;2.85;2.65;;;;;;;5.78;100.00;97026.38;5031624;28;24423;-78
2021/09/22 05:45:26;;;;;;;2.80;2.45;;;;;;;5.77;100.00;97037.56;5012636;28;24886;-78
2021/09/22 05:47:52;;;;;;;2.70;2.40;;;;;;;5.93;100.00;97030.34;5019304;28;24964;-78
2021/09/22 05:50:19;;;;;;;5.65;3.22;;;;;;;6.03;100.00;97037.81;5024211;28;24797;-78
2021/09/22 05:52:45;;;;;;;4.20;3.00;;;;;;;6.10;100.00;97037.66;5033746;28;24474;-79
2021/09/22 05:55:11;;;;;;;3.03;2.75;;;;;;;6.05;100.00;97028.34;5033337;28;24416;-79
2021/09/22 05:57:41;;;;;;;3.78;2.80;;;;;;;6.01;100.00;97034.44;5033781;28;24431;-78
2021/09/22 06:00:09;;;;;;;2.97;2.72;;;;;;;6.01;100.00;97026.72;5031226;28;24822;-79
2021/09/22 06:02:35;;;;;;;3.03;2.72;;;;;;;6.07;100.00;97026.56;5025951;28;24432;-78
2021/09/22 06:05:02;;;;;;;3.25;2.50;;;;;;;6.20;100.00;97036.56;5033540;28;24443;-78
2021/09/22 06:07:28;;;;;;;3.30;2.70;;;;;;;6.37;100.00;97031.81;5033799;28;24430;-78
2021/09/22 06:09:55;;;;;;;3.15;2.78;;;;;;;6.48;100.00;97032.38;5032896;28;24420;-78
2021/09/22 06:12:21;;;;;;;2.72;2.53;;;;;;;6.59;100.00;97032.09;5032258;28;24423;-77
2021/09/22 06:14:49;;;;;;;4.30;2.53;;;;;;;6.62;100.00;97034.56;5017588;28;24504;-79
2021/09/22 06:17:16;;;;;;;3.30;3.00;;;;;;;6.68;100.00;97034.41;5013508;28;24424;-79
2021/09/22 06:19:43;;;;;;;3.38;2.92;;;;;;;6.78;100.00;97027.28;5012605;28;24620;-78
2021/09/22 06:22:09;;;;;;;6.60;3.22;;;;;;;6.89;100.00;97034.69;5012655;28;24436;-79
2021/09/22 06:24:36;;;;;;;4.30;3.17;;;;;;;7.06;100.00;97039.41;5012263;28;24451;-79
2021/09/22 06:27:02;;;;;;;4.18;3.15;;;;;;;7.18;100.00;97033.88;5012675;28;24435;-79
2021/09/22 06:29:29;;;;;;;4.60;4.00;;;;;;;7.28;100.00;97036.16;5016198;28;24428;-79
2021/09/22 06:31:57;;;;;;;8.02;5.15;;;;;;;7.23;100.00;97038.03;5017921;28;24519;-79
2021/09/22 06:34:23;;;;;;;6.37;5.00;;;;;;;7.15;100.00;97041.69;5015850;28;24428;-78
2021/09/22 06:36:50;;;;;;;7.50;5.10;;;;;;;7.14;100.00;97043.44;5014062;28;24966;-79
2021/09/22 06:39:16;;;;;;;5.90;5.00;;;;;;;7.30;100.00;97038.66;5013184;28;24475;-74
2021/09/22 06:41:43;;;;;;;8.80;5.40;;;;;;;7.58;100.00;97041.28;5012765;28;24429;-79
2021/09/22 06:44:09;;;;;;;8.13;5.95;;;;;;;7.74;100.00;97039.88;5012643;28;24460;-81
2021/09/22 06:46:36;;;;;;;10.32;5.82;;;;;;;7.86;100.00;97036.09;5012101;28;24432;-75
2021/09/22 06:49:03;;;;;;;9.98;5.53;;;;;;;7.97;100.00;97043.47;5012442;28;24801;-75
2021/09/22 06:51:30;;;;;;;9.07;5.60;;;;;;;8.15;100.00;97039.47;5012219;28;24878;-75
2021/09/22 06:53:56;;;;;;;6.63;5.75;;;;;;;8.27;100.00;97040.78;5013177;28;24428;-75
2021/09/22 06:56:24;;;;;;;14.05;6.00;;;;;;;8.35;99.42;97042.25;5013031;28;24463;-75
2021/09/22 06:58:50;;;;;;;7.95;6.22;;;;;;;8.28;100.00;97043.34;5013046;28;20804;-75
2021/09/22 07:01:17;;;;;;;8.40;6.07;;;;;;;8.17;100.00;97048.00;5002663;28;20776;-75
2021/09/22 07:03:43;;;;;;;12.40;5.57;;;;;;;8.15;100.00;97049.78;5014762;28;21163;-76
2021/09/22 07:06:12;;;;;;;13.45;5.80;;;;;;;8.41;100.00;97038.63;5019850;28;25079;-75
2021/09/22 07:08:38;;;;;;;8.52;5.95;;;;;;;8.65;100.00;97049.88;5031099;28;20821;-76
2021/09/22 07:11:05;;;;;;;8.38;6.45;;;;;;;8.69;100.00;97052.28;5023322;28;24435;-76
2021/09/22 07:13:32;;;;;;;9.13;6.75;;;;;;;8.85;100.00;97047.41;5011823;28;24443;-76
2021/09/22 07:15:58;;;;;;;11.35;6.65;;;;;;;9.01;99.93;97047.72;4991115;28;20756;-76
2021/09/22 07:18:25;;;;;;;9.93;7.00;;;;;;;9.19;99.08;97054.78;4992057;28;20932;-76
2021/09/22 07:20:51;;;;;;;8.25;7.45;;;;;;;9.39;99.00;97059.22;4991417;28;20768;-76
2021/09/22 07:23:19;;;;;;;8.98;7.18;;;;;;;9.60;98.85;97054.13;4999498;28;24450;-75
2021/09/22 07:25:46;;;;;;;9.57;7.53;;;;;;;9.72;99.76;97063.19;5022056;28;20873;-75
2021/09/22 07:28:13;;;;;;;8.77;6.97;;;;;;;9.87;99.80;97065.16;5030696;28;24420;-76
2021/09/22 07:30:39;;;;;;;11.18;7.20;;;;;;;10.05;100.00;97068.75;5030519;28;24435;-76
2021/09/22 07:33:06;;;;;;;12.65;7.65;;;;;;;10.24;99.50;97072.31;5030820;28;24420;-76
2021/09/22 07:35:33;;;;;;;11.88;7.63;;;;;;;10.37;97.92;97080.44;5030710;28;24507;-75
2021/09/22 07:38:01;;;;;;;7.93;6.57;;;;;;;10.51;94.76;97074.69;5030371;28;24435;-75
2021/09/22 07:40:30;;;;;;;10.48;7.30;;;;;;;10.39;94.98;97076.88;5011810;28;24537;-75
2021/09/22 07:42:57;;;;;;;12.45;7.53;;;;;;;10.47;94.70;97070.56;5020886;28;24432;-75
2021/09/22 07:45:25;;;;;;;12.02;8.38;;;;;;;10.47;94.43;97065.38;5025891;28;24543;-75
2021/09/22 07:47:51;;;;;;;10.57;8.48;;;;;;;10.48;95.43;97067.03;5020994;28;24436;-76
2021/09/22 07:50:18;;;;;;;11.10;8.98;;;;;;;10.62;95.75;97068.16;5025484;28;24523;-75
2021/09/22 07:52:45;;;;;;;12.52;8.88;;;;;;;10.82;94.08;97062.09;5034771;28;24424;-76
2021/09/22 07:55:12;;;;;;;9.05;8.02;;;;;;;10.98;95.77;97064.06;5034520;28;25000;-76
2021/09/22 07:57:40;;;;;;;12.95;9.65;;;;;;;11.22;91.68;97062.97;5022261;28;24795;-76
2021/09/22 08:00:08;;;;;;;13.68;10.48;;;;;;;11.26;92.27;97054.13;5024090;28;25027;-75
2021/09/22 08:02:34;;;;;;;18.15;9.82;;;;;;;11.18;93.25;97064.00;5026745;28;24439;-76
2021/09/22 08:05:01;;;;;;;17.25;10.85;;;;;;;11.59;92.15;97051.75;5033177;28;25030;-76
2021/09/22 08:07:27;;;;;;;19.80;10.40;;;;;;;11.65;91.96;97058.41;5033417;28;24427;-76
2021/09/22 08:09:54;;;;;;;20.53;10.57;;;;;;;11.71;89.71;97063.31;5028480;28;24488;-76
2021/09/22 08:12:20;;;;;;;20.23;11.80;;;;;;;11.72;92.08;97072.81;5024836;28;24485;-75
2021/09/22 08:14:48;;;;;;;22.83;10.50;;;;;;;11.90;88.95;97065.91;5017077;28;24822;-75
2021/09/22 08:17:17;;;;;;;22.10;12.25;;;;;;;11.79;89.77;97070.72;5013859;28;24467;-76
2021/09/22 08:19:44;;;;;;;24.88;11.35;;;;;;;11.89;90.26;97072.03;5013508;28;24463;-75
2021/09/22 08:22:11;;;;;;;28.27;12.30;;;;;;;11.94;89.24;97074.41;5011340;28;24440;-76
2021/09/22 08:24:38;;;;;;;18.27;11.50;;;;;;;12.14;88.96;97066.50;5026168;28;24428;-70
2021/09/22 08:27:05;;;;;;;19.08;12.35;;;;;;;12.20;87.85;97073.16;5029717;28;24432;-76
2021/09/22 08:29:32;;;;;;;13.63;11.00;;;;;;;12.10;90.35;97073.59;5033537;28;24482;-76
2021/09/22 08:31:59;;;;;;;14.65;10.35;;;;;;;12.25;88.34;97072.03;5033599;28;24412;-76
2021/09/22 08:34:26;;;;;;;15.53;10.40;;;;;;;12.33;88.79;97087.22;5033305;28;24412;-76
2021/09/22 08:36:53;;;;;;;14.57;10.23;;;;;;;12.73;88.17;97088.69;5034051;28;24825;-76
2021/09/22 08:39:20;;;;;;;14.68;10.35;;;;;;;12.79;86.27;97087.53;5033620;28;24431;-75
2021/09/22 08:41:48;;;;;;;15.77;10.57;;;;;;;12.86;87.09;97075.91;5033984;28;24607;-75
2021/09/22 08:44:15;;;;;;;16.40;10.82;;;;;;;13.39;83.03;97082.72;5022180;28;24803;-75
2021/09/22 08:46:44;;;;;;;17.13;11.13;;;;;;;13.51;77.88;97083.84;5013338;28;24448;-75
2021/09/22 08:49:12;;;;;;;20.23;10.95;;;;;;;13.71;79.73;97075.78;5013403;28;24961;-76
2021/09/22 08:51:39;;;;;;;13.65;8.20;;;;;;;14.58;72.25;97071.84;5013281;28;24802;-76
2021/09/22 08:54:06;;;;;;;8.27;7.40;;;;;;;14.77;66.90;97075.06;5012813;28;24483;-75
2021/09/22 08:56:32;;;;;;;9.95;6.88;;;;;;;14.85;64.51;97077.19;5013396;28;24428;-75
2021/09/22 08:58:59;;;;;;;12.90;8.60;;;;;;;14.77;65.75;97073.28;5013955;28;24420;-76
2021/09/22 09:01:26;;;;;;;8.43;7.63;;;;;;;15.02;63.50;97066.63;5015083;28;24424;-75
2021/09/22 09:03:53;;;;;;;8.73;7.22;;;;;;;15.00;61.50;97078.91;5015485;28;24988;-76
2021/09/22 09:06:24;;;;;;;6.85;6.22;;;;;;;15.25;60.64;97068.66;5014567;28;24873;-78
2021/09/22 09:08:53;;;;;;;7.20;6.50;;;;;;;15.24;62.65;97074.00;5015532;28;24424;-77
2021/09/22 09:11:32;;;;;;;7.18;6.15;;;;;;;15.68;63.80;97076.50;5015785;28;24421;-78
2021/09/22 09:14:00;;;;;;;7.28;6.15;;;;;;;15.88;67.42;97075.25;5014764;28;24432;-77
2021/09/22 09:16:35;;;;;;;7.60;5.50;;;;;;;15.69;62.84;97075.56;5015178;28;24421;-76
2021/09/22 09:19:01;;;;;;;6.90;5.25;;;;;;;15.65;62.32;97065.38;5014944;28;24498;-76
2021/09/22 09:21:29;;;;;;;8.90;5.83;;;;;;;15.80;58.43;97077.50;5015111;28;24432;-76
2021/09/22 09:23:58;;;;;;;11.27;5.47;;;;;;;15.56;61.07;97072.00;5014425;28;24428;-77
2021/09/22 09:26:27;;;;;;;7.55;5.80;;;;;;;15.36;60.94;97075.84;5013247;28;24931;-77
2021/09/22 09:28:55;;;;;;;7.70;5.50;;;;;;;15.15;64.09;97071.91;5013965;28;24429;-77
2021/09/22 09:31:23;;;;;;;8.15;6.18;;;;;;;14.91;64.98;97069.03;5013551;28;24463;-77
2021/09/22 09:33:52;;;;;;;7.85;6.40;;;;;;;14.71;65.91;97067.56;5013519;28;24429;-76
2021/09/22 09:36:31;;;;;;;9.20;6.63;;;;;;;14.88;65.20;97069.19;5013370;28;24474;-77
2021/09/22 09:39:05;;;;;;;8.48;6.10;;;;;;;15.29;65.68;97069.31;5013603;28;24413;-76
2021/09/22 09:41:38;;;;;;;8.05;5.97;;;;;;;15.55;63.33;97067.72;5014590;28;25015;-76
2021/09/22 09:44:07;;;;;;;8.93;7.68;;;;;;;15.59;65.92;97074.41;5015201;28;24425;-77
2021/09/22 09:46:34;;;;;;;11.07;6.75;;;;;;;15.67;60.93;97068.75;5013942;28;24440;-76
2021/09/22 09:49:05;;;;;;;7.25;6.25;;;;;;;15.77;61.46;97069.03;5013700;28;24814;-76
2021/09/22 09:51:39;;;;;;;16.52;8.32;;;;;;;16.01;64.72;97067.44;5014670;28;24424;-76
2021/09/22 09:54:14;;;;;;;10.27;7.13;;;;;;;15.99;64.02;97065.91;5014164;28;24417;-73
2021/09/22 09:56:41;;;;;;;12.02;7.25;;;;;;;16.02;63.21;97068.28;5011637;28;24447;-76
2021/09/22 09:59:08;;;;;;;24.52;7.13;;;;;;;16.10;61.62;97063.44;5011424;28;24440;-75
2021/09/22 10:01:36;;;;;;;8.63;6.03;;;;;;;15.90;62.76;97047.22;4994160;28;24417;-77
2021/09/22 10:04:06;;;;;;;6.70;5.35;;;;;;;15.91;65.25;97056.78;4994345;28;24431;-77
2021/09/22 10:06:33;;;;;;;8.45;6.43;;;;;;;15.99;65.25;97053.66;4992782;28;24811;-78
2021/09/22 10:09:01;;;;;;;9.00;6.65;;;;;;;15.92;65.75;97052.38;4995812;28;24452;-77
2021/09/22 10:11:28;;;;;;;7.03;5.90;;;;;;;15.94;62.70;97035.69;4993233;28;24417;-78
2021/09/22 10:13:55;;;;;;;8.02;6.43;;;;;;;15.86;62.32;97034.47;5001348;28;25037;-77
2021/09/22 10:16:22;;;;;;;8.98;6.95;;;;;;;15.99;64.05;97022.31;5014321;28;24432;-77
2021/09/22 10:18:49;;;;;;;11.05;6.03;;;;;;;16.15;62.34;97028.22;5014917;28;24433;-77
2021/09/22 10:21:19;;;;;;;8.73;6.03;;;;;;;16.40;62.48;97016.97;5012774;28;24965;-77
2021/09/22 10:23:47;;;;;;;5.57;5.07;;;;;;;16.43;61.72;97022.00;5015546;28;24424;-77
2021/09/22 10:26:15;;;;;;;8.15;4.90;;;;;;;16.52;61.87;97017.94;5014207;28;24475;-78
2021/09/22 10:28:43;;;;;;;8.57;4.47;;;;;;;16.79;61.96;97022.28;5015532;28;24658;-77
2021/09/22 10:31:16;;;;;;;4.40;4.00;;;;;;;16.78;57.02;97018.00;5015008;28;24412;-77
2021/09/22 10:33:45;;;;;;;4.80;4.30;;;;;;;17.07;62.51;97010.78;5014142;28;24774;-77
2021/09/22 10:36:12;;;;;;;5.25;3.25;;;;;;;17.21;59.35;97015.06;5013093;28;24427;-77
2021/09/22 10:38:42;;;;;;;5.10;3.67;;;;;;;16.80;60.08;97003.88;5011662;28;24553;-77
2021/09/22 10:41:10;;;;;;;5.13;3.40;;;;;;;16.74;57.06;97000.84;5013190;28;24952;-77
2021/09/22 10:43:43;;;;;;;3.42;3.13;;;;;;;16.88;59.43;96998.13;5011107;28;24464;-77
2021/09/22 10:46:13;;;;;;;4.87;2.93;;;;;;;16.85;58.74;96999.16;5012311;28;24529;-78
2021/09/22 10:48:41;;;;;;;3.60;3.30;;;;;;;16.73;59.56;96997.34;5013090;28;24882;-77
2021/09/22 10:51:10;;;;;;;4.47;3.17;;;;;;;16.81;59.46;96995.09;5013716;28;24428;-77
2021/09/22 10:53:39;;;;;;;4.30;3.30;;;;;;;17.07;57.83;96989.84;5014060;28;24432;-77
2021/09/22 10:56:08;;;;;;;3.85;2.80;;;;;;;17.27;57.18;97001.53;5009626;28;24989;-77
2021/09/22 10:58:39;;;;;;;2.90;2.50;;;;;;;17.18;55.54;96990.75;5014149;28;25159;-77
2021/09/22 11:01:07;;;;;;;3.20;2.63;;;;;;;17.07;59.17;97006.38;5026944;28;24420;-77
2021/09/22 11:03:56;;;;;;;4.90;3.25;;;;;;;17.00;61.32;97005.13;5033429;28;24431;-78
2021/09/22 11:06:51;;;;;;;3.63;2.50;;;;;;;16.84;56.67;97000.13;5032505;28;24547;-77
2021/09/22 11:09:45;;;;;;;3.57;2.90;;;;;;;17.24;59.48;96997.34;5031548;28;24828;-77
2021/09/22 11:12:16;;;;;;;4.78;3.67;;;;;;;17.23;54.45;96989.59;5031511;28;24866;-76
2021/09/22 11:14:46;;;;;;;3.33;2.83;;;;;;;17.30;57.07;96986.44;5015854;28;24425;-77
2021/09/22 11:17:16;;;;;;;5.93;3.17;;;;;;;17.36;57.60;96975.53;5013128;28;24424;-77
2021/09/22 11:19:47;;;;;;;2.95;2.55;;;;;;;17.34;56.71;96990.50;5015405;28;24516;-77
2021/09/22 11:22:16;;;;;;;3.33;2.20;;;;;;;17.22;56.01;96974.84;5016101;28;24452;-77
2021/09/22 11:24:43;;;;;;;3.30;2.17;;;;;;;17.10;57.43;96982.63;5016473;28;24432;-77
2021/09/22 11:27:12;;;;;;;3.77;2.83;;;;;;;17.25;59.11;96977.25;5017715;28;24460;-78
2021/09/22 11:29:41;;;;;;;6.03;3.03;;;;;;;16.91;55.25;96977.81;5017407;28;24435;-77
2021/09/22 11:32:26;;;;;;;2.80;2.10;;;;;;;17.14;56.78;96972.75;5017808;28;24968;-78
2021/09/22 11:34:55;;;;;;;3.70;2.10;;;;;;;17.21;57.10;96973.19;4997517;28;24435;-78